sensor_id;sensor_type;location;lat;lon;timestamp;P1;durP1;ratioP1;P2;durP2;ratioP2
84808;SDS011;75044;53.126;18.008;2024-03-02T00:00:49;41.20;;;24.00;;
84808;SDS011;75044;53.126;18.008;2024-03-02T00:02:15;45.10;;;26.10;;
84808;SDS011;75044;53.126;18.008;2024-03-02T00:04:22;42.30;;;23.60;;
84808;SDS011;75044;53.126;18.008;2024-03-02T00:05:25;47.70;;;26.50;;
84808;SDS011;75044;53.126;18.008;2024-03-02T00:07:32;42.90;;;22.90;;
84808;SDS011;75044;53.126;18.008;2024-03-02T00:08:36;42.30;;;23.70;;
84808;SDS011;75044;53.126;18.008;2024-03-02T00:10:42;43.40;;;25.30;;
84808;SDS011;75044;53.126;18.008;2024-03-02T00:11:46;48.40;;;26.10;;
84808;SDS011;75044;53.126;18.008;2024-03-02T00:12:49;40.30;;;24.40;;
84808;SDS011;75044;53.126;18.008;2024-03-02T00:14:57;47.10;;;26.40;;
84808;SDS011;75044;53.126;18.008;2024-03-02T00:16:00;42.70;;;26.70;;
84808;SDS011;75044;53.126;18.008;2024-03-02T00:17:04;47.50;;;26.70;;
84808;SDS011;75044;53.126;18.008;2024-03-02T00:18:11;46.00;;;27.20;;
84808;SDS011;75044;53.126;18.008;2024-03-02T00:19:16;44.60;;;25.50;;
84808;SDS011;75044;53.126;18.008;2024-03-02T00:20:21;46.60;;;29.50;;
84808;SDS011;75044;53.126;18.008;2024-03-02T00:21:26;43.40;;;26.80;;
84808;SDS011;75044;53.126;18.008;2024-03-02T00:22:34;47.90;;;25.60;;
84808;SDS011;75044;53.126;18.008;2024-03-02T00:23:40;43.80;;;25.20;;
84808;SDS011;75044;53.126;18.008;2024-03-02T00:24:43;44.90;;;26.00;;
84808;SDS011;75044;53.126;18.008;2024-03-02T00:26:50;45.70;;;25.40;;
84808;SDS011;75044;53.126;18.008;2024-03-02T00:27:54;47.30;;;26.30;;
84808;SDS011;75044;53.126;18.008;2024-03-02T00:28:57;46.50;;;26.30;;
84808;SDS011;75044;53.126;18.008;2024-03-02T00:31:49;46.60;;;25.50;;
84808;SDS011;75044;53.126;18.008;2024-03-02T00:32:53;43.60;;;25.30;;
84808;SDS011;75044;53.126;18.008;2024-03-02T00:33:56;45.70;;;26.10;;
84808;SDS011;75044;53.126;18.008;2024-03-02T00:35:04;47.20;;;26.30;;
84808;SDS011;75044;53.126;18.008;2024-03-02T00:36:08;45.50;;;25.40;;
84808;SDS011;75044;53.126;18.008;2024-03-02T00:37:12;52.00;;;27.10;;
84808;SDS011;75044;53.126;18.008;2024-03-02T00:38:17;51.20;;;28.60;;
84808;SDS011;75044;53.126;18.008;2024-03-02T00:39:21;47.40;;;26.00;;
84808;SDS011;75044;53.126;18.008;2024-03-02T00:40:26;44.40;;;26.10;;
84808;SDS011;75044;53.126;18.008;2024-03-02T00:41:32;45.60;;;27.10;;
84808;SDS011;75044;53.126;18.008;2024-03-02T00:42:38;44.20;;;25.90;;
84808;SDS011;75044;53.126;18.008;2024-03-02T00:43:43;41.30;;;25.70;;
84808;SDS011;75044;53.126;18.008;2024-03-02T00:44:47;42.40;;;24.10;;
84808;SDS011;75044;53.126;18.008;2024-03-02T00:45:51;46.00;;;26.00;;
84808;SDS011;75044;53.126;18.008;2024-03-02T00:47:58;46.10;;;24.50;;
84808;SDS011;75044;53.126;18.008;2024-03-02T00:49:05;44.40;;;25.80;;
84808;SDS011;75044;53.126;18.008;2024-03-02T00:50:15;50.50;;;26.80;;
84808;SDS011;75044;53.126;18.008;2024-03-02T00:51:18;47.40;;;27.10;;
84808;SDS011;75044;53.126;18.008;2024-03-02T00:53:25;42.80;;;23.90;;
84808;SDS011;75044;53.126;18.008;2024-03-02T00:54:29;49.30;;;29.10;;
84808;SDS011;75044;53.126;18.008;2024-03-02T00:55:35;43.40;;;24.90;;
84808;SDS011;75044;53.126;18.008;2024-03-02T00:56:40;41.90;;;22.20;;
84808;SDS011;75044;53.126;18.008;2024-03-02T00:57:44;47.50;;;27.10;;
84808;SDS011;75044;53.126;18.008;2024-03-02T00:58:48;41.20;;;26.50;;
84808;SDS011;75044;53.126;18.008;2024-03-02T00:59:52;50.00;;;26.70;;
84808;SDS011;75044;53.126;18.008;2024-03-02T01:01:58;44.50;;;26.90;;
84808;SDS011;75044;53.126;18.008;2024-03-02T01:03:02;41.80;;;25.40;;
84808;SDS011;75044;53.126;18.008;2024-03-02T01:04:07;47.80;;;26.30;;
84808;SDS011;75044;53.126;18.008;2024-03-02T01:05:11;47.50;;;27.10;;
84808;SDS011;75044;53.126;18.008;2024-03-02T01:07:18;43.60;;;24.80;;
84808;SDS011;75044;53.126;18.008;2024-03-02T01:08:21;45.00;;;24.30;;
84808;SDS011;75044;53.126;18.008;2024-03-02T01:09:24;40.00;;;24.90;;
84808;SDS011;75044;53.126;18.008;2024-03-02T01:10:27;46.50;;;27.30;;
84808;SDS011;75044;53.126;18.008;2024-03-02T01:12:36;46.20;;;27.20;;
84808;SDS011;75044;53.126;18.008;2024-03-02T01:13:39;42.50;;;22.10;;
84808;SDS011;75044;53.126;18.008;2024-03-02T01:14:43;45.00;;;25.70;;
84808;SDS011;75044;53.126;18.008;2024-03-02T01:15:46;40.80;;;24.00;;
84808;SDS011;75044;53.126;18.008;2024-03-02T01:16:49;49.60;;;25.20;;
84808;SDS011;75044;53.126;18.008;2024-03-02T01:17:53;46.60;;;28.70;;
84808;SDS011;75044;53.126;18.008;2024-03-02T01:18:56;50.80;;;27.50;;
84808;SDS011;75044;53.126;18.008;2024-03-02T01:20:00;45.80;;;28.30;;
84808;SDS011;75044;53.126;18.008;2024-03-02T01:21:04;43.30;;;26.90;;
84808;SDS011;75044;53.126;18.008;2024-03-02T01:23:10;48.10;;;26.00;;
84808;SDS011;75044;53.126;18.008;2024-03-02T01:25:16;45.90;;;25.60;;
84808;SDS011;75044;53.126;18.008;2024-03-02T01:26:21;42.60;;;23.20;;
84808;SDS011;75044;53.126;18.008;2024-03-02T01:27:24;44.30;;;25.30;;
84808;SDS011;75044;53.126;18.008;2024-03-02T01:28:27;43.00;;;23.60;;
84808;SDS011;75044;53.126;18.008;2024-03-02T01:29:31;50.40;;;26.10;;
84808;SDS011;75044;53.126;18.008;2024-03-02T01:30:34;46.10;;;24.90;;
84808;SDS011;75044;53.126;18.008;2024-03-02T01:31:37;43.40;;;26.50;;
84808;SDS011;75044;53.126;18.008;2024-03-02T01:32:42;44.50;;;26.70;;
84808;SDS011;75044;53.126;18.008;2024-03-02T01:33:46;43.80;;;25.80;;
84808;SDS011;75044;53.126;18.008;2024-03-02T01:34:49;38.70;;;24.00;;
84808;SDS011;75044;53.126;18.008;2024-03-02T01:35:52;43.10;;;25.10;;
84808;SDS011;75044;53.126;18.008;2024-03-02T01:36:55;44.10;;;25.40;;
84808;SDS011;75044;53.126;18.008;2024-03-02T01:37:58;43.20;;;25.50;;
84808;SDS011;75044;53.126;18.008;2024-03-02T01:39:02;40.80;;;24.20;;
84808;SDS011;75044;53.126;18.008;2024-03-02T01:40:06;47.30;;;26.90;;
84808;SDS011;75044;53.126;18.008;2024-03-02T01:41:12;45.70;;;26.00;;
84808;SDS011;75044;53.126;18.008;2024-03-02T01:42:15;39.00;;;23.50;;
84808;SDS011;75044;53.126;18.008;2024-03-02T01:44:22;45.30;;;24.80;;
84808;SDS011;75044;53.126;18.008;2024-03-02T01:45:25;41.50;;;24.50;;
84808;SDS011;75044;53.126;18.008;2024-03-02T01:46:29;41.50;;;23.50;;
84808;SDS011;75044;53.126;18.008;2024-03-02T01:48:35;41.60;;;25.90;;
84808;SDS011;75044;53.126;18.008;2024-03-02T01:49:39;41.60;;;24.30;;
84808;SDS011;75044;53.126;18.008;2024-03-02T01:50:43;44.10;;;24.50;;
84808;SDS011;75044;53.126;18.008;2024-03-02T01:51:47;41.30;;;25.00;;
84808;SDS011;75044;53.126;18.008;2024-03-02T01:53:53;42.20;;;25.50;;
84808;SDS011;75044;53.126;18.008;2024-03-02T01:54:57;44.50;;;24.00;;
84808;SDS011;75044;53.126;18.008;2024-03-02T01:56:00;43.10;;;25.50;;
84808;SDS011;75044;53.126;18.008;2024-03-02T01:57:04;44.10;;;25.80;;
84808;SDS011;75044;53.126;18.008;2024-03-02T01:58:07;47.40;;;26.50;;
84808;SDS011;75044;53.126;18.008;2024-03-02T01:59:11;47.30;;;24.50;;
84808;SDS011;75044;53.126;18.008;2024-03-02T02:00:16;50.10;;;26.80;;
84808;SDS011;75044;53.126;18.008;2024-03-02T02:01:20;43.30;;;22.90;;
84808;SDS011;75044;53.126;18.008;2024-03-02T02:02:24;41.10;;;23.40;;
84808;SDS011;75044;53.126;18.008;2024-03-02T02:04:30;41.30;;;23.50;;
84808;SDS011;75044;53.126;18.008;2024-03-02T02:06:37;40.40;;;25.10;;
84808;SDS011;75044;53.126;18.008;2024-03-02T02:08:45;44.20;;;25.50;;
84808;SDS011;75044;53.126;18.008;2024-03-02T02:09:50;40.30;;;24.40;;
84808;SDS011;75044;53.126;18.008;2024-03-02T02:10:53;42.10;;;24.50;;
84808;SDS011;75044;53.126;18.008;2024-03-02T02:13:00;48.00;;;24.80;;
84808;SDS011;75044;53.126;18.008;2024-03-02T02:14:03;47.00;;;26.20;;
84808;SDS011;75044;53.126;18.008;2024-03-02T02:16:29;47.90;;;26.90;;
84808;SDS011;75044;53.126;18.008;2024-03-02T02:18:36;46.10;;;26.20;;
84808;SDS011;75044;53.126;18.008;2024-03-02T02:19:42;40.20;;;22.90;;
84808;SDS011;75044;53.126;18.008;2024-03-02T02:20:46;40.70;;;25.90;;
84808;SDS011;75044;53.126;18.008;2024-03-02T02:21:50;43.90;;;24.60;;
84808;SDS011;75044;53.126;18.008;2024-03-02T02:24:16;47.20;;;25.50;;
84808;SDS011;75044;53.126;18.008;2024-03-02T02:25:19;49.50;;;26.20;;
84808;SDS011;75044;53.126;18.008;2024-03-02T02:26:23;39.40;;;24.20;;
84808;SDS011;75044;53.126;18.008;2024-03-02T02:27:27;47.00;;;26.00;;
84808;SDS011;75044;53.126;18.008;2024-03-02T02:28:30;45.90;;;26.20;;
84808;SDS011;75044;53.126;18.008;2024-03-02T02:29:34;47.10;;;27.40;;
84808;SDS011;75044;53.126;18.008;2024-03-02T02:30:37;40.90;;;25.40;;
84808;SDS011;75044;53.126;18.008;2024-03-02T02:31:41;45.80;;;25.80;;
84808;SDS011;75044;53.126;18.008;2024-03-02T02:32:45;40.40;;;25.50;;
84808;SDS011;75044;53.126;18.008;2024-03-02T02:33:48;46.20;;;24.10;;
84808;SDS011;75044;53.126;18.008;2024-03-02T02:34:52;42.10;;;23.90;;
84808;SDS011;75044;53.126;18.008;2024-03-02T02:35:55;40.60;;;24.70;;
84808;SDS011;75044;53.126;18.008;2024-03-02T02:36:58;42.70;;;26.00;;
84808;SDS011;75044;53.126;18.008;2024-03-02T02:38:02;39.40;;;24.10;;
84808;SDS011;75044;53.126;18.008;2024-03-02T02:39:06;40.60;;;25.30;;
84808;SDS011;75044;53.126;18.008;2024-03-02T02:40:13;44.30;;;25.80;;
84808;SDS011;75044;53.126;18.008;2024-03-02T02:41:19;43.50;;;25.70;;
84808;SDS011;75044;53.126;18.008;2024-03-02T02:42:22;44.40;;;25.60;;
84808;SDS011;75044;53.126;18.008;2024-03-02T02:43:26;42.90;;;24.90;;
84808;SDS011;75044;53.126;18.008;2024-03-02T02:44:29;40.90;;;24.50;;
84808;SDS011;75044;53.126;18.008;2024-03-02T02:45:32;41.80;;;24.10;;
84808;SDS011;75044;53.126;18.008;2024-03-02T02:47:39;39.40;;;21.60;;
84808;SDS011;75044;53.126;18.008;2024-03-02T02:48:42;38.20;;;22.60;;
84808;SDS011;75044;53.126;18.008;2024-03-02T02:49:47;36.40;;;21.50;;
84808;SDS011;75044;53.126;18.008;2024-03-02T02:50:50;38.70;;;23.80;;
84808;SDS011;75044;53.126;18.008;2024-03-02T02:51:54;41.20;;;24.50;;
84808;SDS011;75044;53.126;18.008;2024-03-02T02:52:57;39.30;;;23.50;;
84808;SDS011;75044;53.126;18.008;2024-03-02T02:54:00;37.70;;;23.40;;
84808;SDS011;75044;53.126;18.008;2024-03-02T02:55:04;40.20;;;23.80;;
84808;SDS011;75044;53.126;18.008;2024-03-02T02:56:08;37.70;;;22.80;;
84808;SDS011;75044;53.126;18.008;2024-03-02T02:57:12;37.00;;;20.60;;
84808;SDS011;75044;53.126;18.008;2024-03-02T02:58:15;34.10;;;20.90;;
84808;SDS011;75044;53.126;18.008;2024-03-02T02:59:18;41.30;;;23.20;;
84808;SDS011;75044;53.126;18.008;2024-03-02T03:00:22;40.40;;;24.10;;
84808;SDS011;75044;53.126;18.008;2024-03-02T03:01:28;36.00;;;22.20;;
84808;SDS011;75044;53.126;18.008;2024-03-02T03:03:34;36.40;;;22.60;;
84808;SDS011;75044;53.126;18.008;2024-03-02T03:04:39;35.90;;;22.10;;
84808;SDS011;75044;53.126;18.008;2024-03-02T03:05:44;32.90;;;19.80;;
84808;SDS011;75044;53.126;18.008;2024-03-02T03:06:47;34.70;;;21.50;;
84808;SDS011;75044;53.126;18.008;2024-03-02T03:07:51;38.70;;;23.40;;
84808;SDS011;75044;53.126;18.008;2024-03-02T03:09:57;33.20;;;20.20;;
84808;SDS011;75044;53.126;18.008;2024-03-02T03:12:04;35.20;;;20.70;;
84808;SDS011;75044;53.126;18.008;2024-03-02T03:13:07;36.80;;;19.90;;
84808;SDS011;75044;53.126;18.008;2024-03-02T03:14:11;34.00;;;19.60;;
84808;SDS011;75044;53.126;18.008;2024-03-02T03:16:19;42.00;;;21.50;;
84808;SDS011;75044;53.126;18.008;2024-03-02T03:17:23;35.50;;;20.70;;
84808;SDS011;75044;53.126;18.008;2024-03-02T03:19:29;36.30;;;19.20;;
84808;SDS011;75044;53.126;18.008;2024-03-02T03:20:32;38.70;;;22.10;;
84808;SDS011;75044;53.126;18.008;2024-03-02T03:21:36;24.80;;;13.30;;
84808;SDS011;75044;53.126;18.008;2024-03-02T03:22:40;34.60;;;21.60;;
84808;SDS011;75044;53.126;18.008;2024-03-02T03:23:43;37.20;;;23.20;;
84808;SDS011;75044;53.126;18.008;2024-03-02T03:24:47;35.10;;;21.30;;
84808;SDS011;75044;53.126;18.008;2024-03-02T03:25:50;34.80;;;20.30;;
84808;SDS011;75044;53.126;18.008;2024-03-02T03:27:56;37.50;;;19.60;;
84808;SDS011;75044;53.126;18.008;2024-03-02T03:29:00;36.30;;;19.80;;
84808;SDS011;75044;53.126;18.008;2024-03-02T03:30:05;32.60;;;20.70;;
84808;SDS011;75044;53.126;18.008;2024-03-02T03:31:09;33.40;;;21.00;;
84808;SDS011;75044;53.126;18.008;2024-03-02T03:32:13;34.60;;;19.00;;
84808;SDS011;75044;53.126;18.008;2024-03-02T03:33:17;32.20;;;20.80;;
84808;SDS011;75044;53.126;18.008;2024-03-02T03:34:20;32.80;;;20.80;;
84808;SDS011;75044;53.126;18.008;2024-03-02T03:35:23;36.60;;;20.80;;
84808;SDS011;75044;53.126;18.008;2024-03-02T03:37:29;31.00;;;19.60;;
84808;SDS011;75044;53.126;18.008;2024-03-02T03:38:35;32.00;;;20.70;;
84808;SDS011;75044;53.126;18.008;2024-03-02T03:39:39;34.50;;;21.80;;
84808;SDS011;75044;53.126;18.008;2024-03-02T03:40:42;32.40;;;21.30;;
84808;SDS011;75044;53.126;18.008;2024-03-02T03:41:46;32.60;;;21.20;;
84808;SDS011;75044;53.126;18.008;2024-03-02T03:42:50;31.00;;;20.80;;
84808;SDS011;75044;53.126;18.008;2024-03-02T03:43:53;33.00;;;21.80;;
84808;SDS011;75044;53.126;18.008;2024-03-02T03:44:56;32.50;;;18.50;;
84808;SDS011;75044;53.126;18.008;2024-03-02T03:47:03;30.60;;;18.10;;
84808;SDS011;75044;53.126;18.008;2024-03-02T03:49:12;33.00;;;18.50;;
84808;SDS011;75044;53.126;18.008;2024-03-02T03:51:18;31.80;;;17.90;;
84808;SDS011;75044;53.126;18.008;2024-03-02T03:52:21;35.20;;;18.70;;
84808;SDS011;75044;53.126;18.008;2024-03-02T03:53:25;30.90;;;18.80;;
84808;SDS011;75044;53.126;18.008;2024-03-02T03:54:28;26.30;;;17.10;;
84808;SDS011;75044;53.126;18.008;2024-03-02T03:55:31;31.50;;;20.30;;
84808;SDS011;75044;53.126;18.008;2024-03-02T03:56:34;27.70;;;18.90;;
84808;SDS011;75044;53.126;18.008;2024-03-02T03:57:38;34.10;;;18.90;;
84808;SDS011;75044;53.126;18.008;2024-03-02T03:59:44;27.10;;;15.40;;
84808;SDS011;75044;53.126;18.008;2024-03-02T04:00:49;28.20;;;17.70;;
84808;SDS011;75044;53.126;18.008;2024-03-02T04:01:52;34.30;;;18.60;;
84808;SDS011;75044;53.126;18.008;2024-03-02T04:02:56;29.00;;;17.60;;
84808;SDS011;75044;53.126;18.008;2024-03-02T04:05:05;28.20;;;17.30;;
84808;SDS011;75044;53.126;18.008;2024-03-02T04:06:11;31.00;;;20.00;;
84808;SDS011;75044;53.126;18.008;2024-03-02T04:07:16;26.10;;;17.10;;
84808;SDS011;75044;53.126;18.008;2024-03-02T04:08:19;27.80;;;17.10;;
84808;SDS011;75044;53.126;18.008;2024-03-02T04:09:23;27.60;;;18.00;;
84808;SDS011;75044;53.126;18.008;2024-03-02T04:11:29;26.30;;;17.50;;
84808;SDS011;75044;53.126;18.008;2024-03-02T04:12:33;27.50;;;18.90;;
84808;SDS011;75044;53.126;18.008;2024-03-02T04:13:38;26.50;;;18.20;;
84808;SDS011;75044;53.126;18.008;2024-03-02T04:14:42;25.40;;;18.20;;
84808;SDS011;75044;53.126;18.008;2024-03-02T04:16:48;29.30;;;18.90;;
84808;SDS011;75044;53.126;18.008;2024-03-02T04:17:51;26.80;;;19.00;;
84808;SDS011;75044;53.126;18.008;2024-03-02T04:18:54;27.30;;;17.40;;
84808;SDS011;75044;53.126;18.008;2024-03-02T04:19:57;23.20;;;16.80;;
84808;SDS011;75044;53.126;18.008;2024-03-02T04:21:01;26.40;;;17.30;;
84808;SDS011;75044;53.126;18.008;2024-03-02T04:22:04;26.90;;;18.10;;
84808;SDS011;75044;53.126;18.008;2024-03-02T04:23:07;27.30;;;17.70;;
84808;SDS011;75044;53.126;18.008;2024-03-02T04:24:11;26.40;;;17.50;;
84808;SDS011;75044;53.126;18.008;2024-03-02T04:25:14;23.60;;;16.60;;
84808;SDS011;75044;53.126;18.008;2024-03-02T04:26:18;29.20;;;18.10;;
84808;SDS011;75044;53.126;18.008;2024-03-02T04:27:25;26.90;;;17.90;;
84808;SDS011;75044;53.126;18.008;2024-03-02T04:28:29;25.30;;;16.90;;
84808;SDS011;75044;53.126;18.008;2024-03-02T04:29:32;27.60;;;20.70;;
84808;SDS011;75044;53.126;18.008;2024-03-02T04:30:35;28.10;;;18.80;;
84808;SDS011;75044;53.126;18.008;2024-03-02T04:31:39;27.80;;;17.10;;
84808;SDS011;75044;53.126;18.008;2024-03-02T04:32:42;27.80;;;18.90;;
84808;SDS011;75044;53.126;18.008;2024-03-02T04:33:49;24.60;;;16.60;;
84808;SDS011;75044;53.126;18.008;2024-03-02T04:34:52;28.90;;;17.50;;
84808;SDS011;75044;53.126;18.008;2024-03-02T04:35:56;23.20;;;15.60;;
84808;SDS011;75044;53.126;18.008;2024-03-02T04:37:00;26.10;;;16.60;;
84808;SDS011;75044;53.126;18.008;2024-03-02T04:39:07;23.90;;;16.50;;
84808;SDS011;75044;53.126;18.008;2024-03-02T04:40:12;23.30;;;14.20;;
84808;SDS011;75044;53.126;18.008;2024-03-02T04:42:19;24.10;;;19.60;;
84808;SDS011;75044;53.126;18.008;2024-03-02T04:44:25;25.30;;;17.40;;
84808;SDS011;75044;53.126;18.008;2024-03-02T04:45:29;23.50;;;15.80;;
84808;SDS011;75044;53.126;18.008;2024-03-02T04:46:32;24.60;;;16.90;;
84808;SDS011;75044;53.126;18.008;2024-03-02T04:48:38;26.50;;;16.90;;
84808;SDS011;75044;53.126;18.008;2024-03-02T04:49:42;29.40;;;18.10;;
84808;SDS011;75044;53.126;18.008;2024-03-02T04:51:48;24.40;;;15.50;;
84808;SDS011;75044;53.126;18.008;2024-03-02T04:52:52;28.80;;;18.20;;
84808;SDS011;75044;53.126;18.008;2024-03-02T04:53:55;24.40;;;16.80;;
84808;SDS011;75044;53.126;18.008;2024-03-02T04:54:58;24.40;;;16.00;;
84808;SDS011;75044;53.126;18.008;2024-03-02T04:56:38;24.40;;;16.70;;
84808;SDS011;75044;53.126;18.008;2024-03-02T04:57:47;23.40;;;16.60;;
84808;SDS011;75044;53.126;18.008;2024-03-02T04:59:54;25.50;;;17.80;;
84808;SDS011;75044;53.126;18.008;2024-03-02T05:00:57;25.10;;;16.70;;
84808;SDS011;75044;53.126;18.008;2024-03-02T05:02:00;28.80;;;16.70;;
84808;SDS011;75044;53.126;18.008;2024-03-02T05:03:03;25.50;;;16.80;;
84808;SDS011;75044;53.126;18.008;2024-03-02T05:04:07;25.50;;;17.10;;
84808;SDS011;75044;53.126;18.008;2024-03-02T05:05:10;23.50;;;16.40;;
84808;SDS011;75044;53.126;18.008;2024-03-02T05:07:16;25.90;;;17.10;;
84808;SDS011;75044;53.126;18.008;2024-03-02T05:08:20;25.30;;;17.10;;
84808;SDS011;75044;53.126;18.008;2024-03-02T05:10:26;22.90;;;16.30;;
84808;SDS011;75044;53.126;18.008;2024-03-02T05:12:42;25.00;;;16.40;;
84808;SDS011;75044;53.126;18.008;2024-03-02T05:13:45;22.00;;;15.50;;
84808;SDS011;75044;53.126;18.008;2024-03-02T05:14:49;24.50;;;19.70;;
84808;SDS011;75044;53.126;18.008;2024-03-02T05:15:56;27.70;;;17.50;;
84808;SDS011;75044;53.126;18.008;2024-03-02T05:16:59;25.20;;;16.90;;
84808;SDS011;75044;53.126;18.008;2024-03-02T05:18:02;22.00;;;15.90;;
84808;SDS011;75044;53.126;18.008;2024-03-02T05:19:08;23.40;;;15.60;;
84808;SDS011;75044;53.126;18.008;2024-03-02T05:21:14;27.10;;;17.20;;
84808;SDS011;75044;53.126;18.008;2024-03-02T05:22:17;25.20;;;16.20;;
84808;SDS011;75044;53.126;18.008;2024-03-02T05:24:24;28.90;;;19.20;;
84808;SDS011;75044;53.126;18.008;2024-03-02T05:25:30;25.50;;;16.30;;
84808;SDS011;75044;53.126;18.008;2024-03-02T05:26:33;23.80;;;16.40;;
84808;SDS011;75044;53.126;18.008;2024-03-02T05:27:36;28.30;;;18.50;;
84808;SDS011;75044;53.126;18.008;2024-03-02T05:28:39;25.90;;;17.30;;
84808;SDS011;75044;53.126;18.008;2024-03-02T05:29:42;24.80;;;17.50;;
84808;SDS011;75044;53.126;18.008;2024-03-02T05:30:46;28.30;;;17.70;;
84808;SDS011;75044;53.126;18.008;2024-03-02T05:31:52;26.40;;;17.20;;
84808;SDS011;75044;53.126;18.008;2024-03-02T05:33:59;27.70;;;16.60;;
84808;SDS011;75044;53.126;18.008;2024-03-02T05:35:03;25.70;;;17.80;;
84808;SDS011;75044;53.126;18.008;2024-03-02T05:36:08;26.60;;;18.40;;
84808;SDS011;75044;53.126;18.008;2024-03-02T05:37:11;26.80;;;16.00;;
84808;SDS011;75044;53.126;18.008;2024-03-02T05:39:18;22.60;;;15.60;;
84808;SDS011;75044;53.126;18.008;2024-03-02T05:40:21;22.60;;;16.70;;
84808;SDS011;75044;53.126;18.008;2024-03-02T05:42:27;28.40;;;18.50;;
84808;SDS011;75044;53.126;18.008;2024-03-02T05:43:30;27.10;;;18.20;;
84808;SDS011;75044;53.126;18.008;2024-03-02T05:44:34;30.70;;;20.50;;
84808;SDS011;75044;53.126;18.008;2024-03-02T05:45:37;30.40;;;19.10;;
84808;SDS011;75044;53.126;18.008;2024-03-02T05:46:41;30.30;;;18.80;;
84808;SDS011;75044;53.126;18.008;2024-03-02T05:47:45;33.60;;;19.70;;
84808;SDS011;75044;53.126;18.008;2024-03-02T05:49:52;29.00;;;19.00;;
84808;SDS011;75044;53.126;18.008;2024-03-02T05:51:58;25.30;;;16.70;;
84808;SDS011;75044;53.126;18.008;2024-03-02T05:53:01;24.60;;;18.50;;
84808;SDS011;75044;53.126;18.008;2024-03-02T05:54:04;28.20;;;17.30;;
84808;SDS011;75044;53.126;18.008;2024-03-02T05:56:11;29.50;;;18.20;;
84808;SDS011;75044;53.126;18.008;2024-03-02T05:57:14;24.50;;;17.50;;
84808;SDS011;75044;53.126;18.008;2024-03-02T05:58:36;27.60;;;18.30;;
84808;SDS011;75044;53.126;18.008;2024-03-02T06:01:01;30.50;;;18.20;;
84808;SDS011;75044;53.126;18.008;2024-03-02T06:02:05;26.20;;;17.90;;
84808;SDS011;75044;53.126;18.008;2024-03-02T06:03:09;28.00;;;17.40;;
84808;SDS011;75044;53.126;18.008;2024-03-02T06:04:12;27.50;;;17.80;;
84808;SDS011;75044;53.126;18.008;2024-03-02T06:05:16;25.80;;;17.00;;
84808;SDS011;75044;53.126;18.008;2024-03-02T06:06:22;27.10;;;18.40;;
84808;SDS011;75044;53.126;18.008;2024-03-02T06:07:26;26.30;;;16.80;;
84808;SDS011;75044;53.126;18.008;2024-03-02T06:08:29;25.80;;;15.90;;
84808;SDS011;75044;53.126;18.008;2024-03-02T06:09:32;28.00;;;17.00;;
84808;SDS011;75044;53.126;18.008;2024-03-02T06:11:39;25.60;;;17.60;;
84808;SDS011;75044;53.126;18.008;2024-03-02T06:12:43;27.30;;;17.30;;
84808;SDS011;75044;53.126;18.008;2024-03-02T06:13:46;26.30;;;18.90;;
84808;SDS011;75044;53.126;18.008;2024-03-02T06:14:50;26.00;;;17.80;;
84808;SDS011;75044;53.126;18.008;2024-03-02T06:16:56;26.10;;;16.40;;
84808;SDS011;75044;53.126;18.008;2024-03-02T06:18:02;24.60;;;16.70;;
84808;SDS011;75044;53.126;18.008;2024-03-02T06:19:06;26.90;;;20.50;;
84808;SDS011;75044;53.126;18.008;2024-03-02T06:20:10;24.70;;;17.50;;
84808;SDS011;75044;53.126;18.008;2024-03-02T06:21:16;24.60;;;17.30;;
84808;SDS011;75044;53.126;18.008;2024-03-02T06:22:19;25.10;;;17.30;;
84808;SDS011;75044;53.126;18.008;2024-03-02T06:23:22;26.60;;;18.30;;
84808;SDS011;75044;53.126;18.008;2024-03-02T06:24:25;25.50;;;18.20;;
84808;SDS011;75044;53.126;18.008;2024-03-02T06:25:29;25.20;;;16.60;;
84808;SDS011;75044;53.126;18.008;2024-03-02T06:26:33;26.70;;;17.60;;
84808;SDS011;75044;53.126;18.008;2024-03-02T06:27:37;27.10;;;18.50;;
84808;SDS011;75044;53.126;18.008;2024-03-02T06:28:43;25.80;;;16.40;;
84808;SDS011;75044;53.126;18.008;2024-03-02T06:29:47;24.10;;;17.00;;
84808;SDS011;75044;53.126;18.008;2024-03-02T06:30:51;26.10;;;18.50;;
84808;SDS011;75044;53.126;18.008;2024-03-02T06:31:55;26.10;;;17.90;;
84808;SDS011;75044;53.126;18.008;2024-03-02T06:32:58;26.80;;;18.10;;
84808;SDS011;75044;53.126;18.008;2024-03-02T06:34:01;27.60;;;17.60;;
84808;SDS011;75044;53.126;18.008;2024-03-02T06:35:06;24.00;;;17.20;;
84808;SDS011;75044;53.126;18.008;2024-03-02T06:36:12;25.60;;;16.10;;
84808;SDS011;75044;53.126;18.008;2024-03-02T06:37:18;26.70;;;17.80;;
84808;SDS011;75044;53.126;18.008;2024-03-02T06:38:21;23.60;;;16.30;;
84808;SDS011;75044;53.126;18.008;2024-03-02T06:40:28;26.70;;;15.90;;
84808;SDS011;75044;53.126;18.008;2024-03-02T06:41:31;26.60;;;15.90;;
84808;SDS011;75044;53.126;18.008;2024-03-02T06:42:35;23.30;;;18.00;;
84808;SDS011;75044;53.126;18.008;2024-03-02T06:43:39;28.50;;;19.80;;
84808;SDS011;75044;53.126;18.008;2024-03-02T06:44:42;25.10;;;18.00;;
84808;SDS011;75044;53.126;18.008;2024-03-02T06:45:46;27.70;;;18.10;;
84808;SDS011;75044;53.126;18.008;2024-03-02T06:47:52;29.00;;;16.30;;
84808;SDS011;75044;53.126;18.008;2024-03-02T06:48:55;30.90;;;19.60;;
84808;SDS011;75044;53.126;18.008;2024-03-02T06:51:02;24.70;;;17.00;;
84808;SDS011;75044;53.126;18.008;2024-03-02T06:53:08;28.70;;;19.00;;
84808;SDS011;75044;53.126;18.008;2024-03-02T06:54:11;25.60;;;16.10;;
84808;SDS011;75044;53.126;18.008;2024-03-02T06:55:14;29.00;;;17.90;;
84808;SDS011;75044;53.126;18.008;2024-03-02T06:56:18;27.60;;;18.10;;
84808;SDS011;75044;53.126;18.008;2024-03-02T06:57:21;24.80;;;20.10;;
84808;SDS011;75044;53.126;18.008;2024-03-02T06:58:24;23.10;;;16.10;;
84808;SDS011;75044;53.126;18.008;2024-03-02T06:59:31;25.30;;;16.60;;
84808;SDS011;75044;53.126;18.008;2024-03-02T07:00:42;27.20;;;19.10;;
84808;SDS011;75044;53.126;18.008;2024-03-02T07:01:47;27.30;;;19.10;;
84808;SDS011;75044;53.126;18.008;2024-03-02T07:02:51;27.10;;;18.70;;
84808;SDS011;75044;53.126;18.008;2024-03-02T07:03:54;25.90;;;17.30;;
84808;SDS011;75044;53.126;18.008;2024-03-02T07:04:58;26.20;;;17.40;;
84808;SDS011;75044;53.126;18.008;2024-03-02T07:06:01;26.30;;;22.40;;
84808;SDS011;75044;53.126;18.008;2024-03-02T07:07:04;28.90;;;19.70;;
84808;SDS011;75044;53.126;18.008;2024-03-02T07:08:08;34.80;;;28.30;;
84808;SDS011;75044;53.126;18.008;2024-03-02T07:09:11;28.20;;;19.90;;
84808;SDS011;75044;53.126;18.008;2024-03-02T07:10:15;39.60;;;28.10;;
84808;SDS011;75044;53.126;18.008;2024-03-02T07:12:22;25.00;;;17.50;;
84808;SDS011;75044;53.126;18.008;2024-03-02T07:13:25;24.80;;;17.10;;
84808;SDS011;75044;53.126;18.008;2024-03-02T07:15:51;27.90;;;17.40;;
84808;SDS011;75044;53.126;18.008;2024-03-02T07:17:20;24.20;;;16.60;;
84808;SDS011;75044;53.126;18.008;2024-03-02T07:18:23;25.10;;;17.50;;
84808;SDS011;75044;53.126;18.008;2024-03-02T07:19:26;25.00;;;19.10;;